createdAt,value
2022-10-01T00:02:08.667Z,6.00
2022-10-01T00:04:37.990Z,5.90
2022-10-01T00:07:10.551Z,5.60
2022-10-01T00:09:38.830Z,6.00
2022-10-01T00:12:07.621Z,5.90
2022-10-01T00:14:39.583Z,5.60
2022-10-01T00:17:07.774Z,5.80
2022-10-01T00:19:35.708Z,6.10
2022-10-01T00:22:03.796Z,5.50
2022-10-01T00:24:31.975Z,6.00
2022-10-01T00:27:00.658Z,5.50
2022-10-01T00:29:28.617Z,5.90
2022-10-01T00:31:57.408Z,5.80
2022-10-01T00:34:26.715Z,5.80
2022-10-01T00:36:54.945Z,5.50
2022-10-01T00:39:23.897Z,5.60
2022-10-01T00:41:52.772Z,5.80
2022-10-01T00:44:37.119Z,6.20
2022-10-01T00:47:30.406Z,6.00
2022-10-01T00:50:16.531Z,6.00
2022-10-01T00:52:52.214Z,5.70
2022-10-01T00:55:29.582Z,5.60
2022-10-01T00:57:58.738Z,5.90
2022-10-01T01:00:27.308Z,5.60
2022-10-01T01:02:55.481Z,6.00
2022-10-01T01:05:24.493Z,5.60
2022-10-01T01:07:54.013Z,5.80
2022-10-01T01:11:10.587Z,5.40
2022-10-01T01:16:45.643Z,5.40
2022-10-01T01:19:34.205Z,5.60
2022-10-01T01:22:07.736Z,5.50
2022-10-01T01:24:51.754Z,5.70
2022-10-01T01:27:28.813Z,5.70
2022-10-01T01:30:09.696Z,5.80
2022-10-01T01:33:04.906Z,5.70
2022-10-01T01:35:46.289Z,5.70
2022-10-01T01:38:22.965Z,5.80
2022-10-01T01:40:55.874Z,5.30
2022-10-01T01:43:31.432Z,6.10
2022-10-01T01:46:02.590Z,5.90
2022-10-01T01:48:33.349Z,5.50
2022-10-01T01:51:35.610Z,5.40
2022-10-01T01:54:03.929Z,5.60
2022-10-01T01:56:32.714Z,6.20
2022-10-01T01:59:03.469Z,5.90
2022-10-01T02:01:41.312Z,5.80
2022-10-01T02:04:31.663Z,5.80
2022-10-01T02:07:24.201Z,5.80
2022-10-01T02:10:18.682Z,5.40
2022-10-01T02:13:24.341Z,5.40
2022-10-01T02:16:35.418Z,5.60
2022-10-01T02:19:34.821Z,5.20
2022-10-01T02:22:20.506Z,5.60
2022-10-01T02:24:57.264Z,5.20
2022-10-01T02:27:37.233Z,5.90
2022-10-01T02:30:09.697Z,5.60
2022-10-01T02:32:44.026Z,5.20
2022-10-01T02:35:16.996Z,5.40
2022-10-01T02:37:50.602Z,5.40
2022-10-01T02:40:27.653Z,5.70
2022-10-01T02:43:07.147Z,6.20
2022-10-01T02:45:40.618Z,5.70
2022-10-01T02:48:11.962Z,5.50
2022-10-01T02:51:09.485Z,6.10
2022-10-01T02:53:52.869Z,5.30
2022-10-01T02:56:48.612Z,5.80
2022-10-01T02:59:17.134Z,5.50
2022-10-01T03:01:45.163Z,5.50
2022-10-01T03:04:13.527Z,5.50
2022-10-01T03:06:42.010Z,5.50
2022-10-01T03:09:10.283Z,5.40
2022-10-01T03:11:38.356Z,5.60
2022-10-01T03:14:06.886Z,6.10
2022-10-01T03:16:34.803Z,5.70
2022-10-01T03:19:03.158Z,5.80
2022-10-01T03:21:31.324Z,5.10
2022-10-01T03:23:59.677Z,5.50
2022-10-01T03:26:27.922Z,5.40
2022-10-01T03:28:55.850Z,5.60
2022-10-01T03:31:23.860Z,5.20
2022-10-01T03:33:51.924Z,5.60
2022-10-01T03:36:19.871Z,5.90
2022-10-01T03:38:48.065Z,5.40
2022-10-01T03:41:16.139Z,5.50
2022-10-01T03:43:43.975Z,5.40
2022-10-01T03:46:12.102Z,5.40
2022-10-01T03:48:40.043Z,5.50
2022-10-01T03:51:07.949Z,5.40
2022-10-01T03:53:35.882Z,5.70
2022-10-01T03:56:05.220Z,5.50
2022-10-01T03:58:34.001Z,5.70
2022-10-01T04:01:03.071Z,5.60
2022-10-01T04:03:31.770Z,5.40
2022-10-01T04:05:59.723Z,5.60
2022-10-01T04:08:27.677Z,5.20
2022-10-01T04:10:55.561Z,6.10
2022-10-01T04:13:23.834Z,5.40
2022-10-01T04:15:51.800Z,5.70
2022-10-01T04:18:21.724Z,6.00
2022-10-01T04:20:50.144Z,5.30
2022-10-01T04:23:18.630Z,5.80
2022-10-01T04:25:46.555Z,5.70
2022-10-01T04:28:15.072Z,5.70
2022-10-01T04:30:46.068Z,6.30
2022-10-01T04:33:16.884Z,6.20
2022-10-01T04:35:45.290Z,6.00
2022-10-01T04:38:18.277Z,5.60
2022-10-01T04:40:46.192Z,6.00
2022-10-01T04:43:14.100Z,5.90
2022-10-01T04:45:42.288Z,6.40
2022-10-01T04:48:10.128Z,6.40
2022-10-01T04:50:38.078Z,6.10
2022-10-01T04:53:06.200Z,6.10
2022-10-01T04:55:34.372Z,6.10
2022-10-01T04:58:03.070Z,5.80
2022-10-01T05:00:31.054Z,6.20
2022-10-01T05:02:58.974Z,6.00
2022-10-01T05:05:29.234Z,6.20
2022-10-01T05:07:57.369Z,6.10
2022-10-01T05:10:25.234Z,6.10
2022-10-01T05:12:53.802Z,6.10
2022-10-01T05:15:22.434Z,5.70
2022-10-01T05:17:50.676Z,6.20
2022-10-01T05:20:22.802Z,5.90
2022-10-01T05:22:50.736Z,5.90
2022-10-01T05:25:20.391Z,5.50
2022-10-01T05:27:48.888Z,6.00
2022-10-01T05:30:22.262Z,5.60
2022-10-01T05:33:00.509Z,6.10
2022-10-01T05:35:29.748Z,5.00
2022-10-01T05:38:02.105Z,5.80
2022-10-01T05:40:30.936Z,5.50
2022-10-01T05:43:00.646Z,5.80
2022-10-01T05:45:31.429Z,5.80
2022-10-01T05:48:06.262Z,5.50
2022-10-01T05:50:40.684Z,5.60
2022-10-01T05:53:12.165Z,5.60
2022-10-01T05:55:40.216Z,5.90
2022-10-01T05:58:11.235Z,5.10
2022-10-01T06:00:41.667Z,5.60
2022-10-01T06:03:13.277Z,5.60
2022-10-01T06:05:44.590Z,5.70
2022-10-01T06:08:13.327Z,5.10
2022-10-01T06:10:42.060Z,5.60
2022-10-01T06:13:10.743Z,5.50
2022-10-01T06:15:39.634Z,5.60
2022-10-01T06:18:10.519Z,5.60
2022-10-01T06:20:41.196Z,5.30
2022-10-01T06:23:12.564Z,5.40
2022-10-01T06:25:43.824Z,5.50
2022-10-01T06:28:14.950Z,6.00
2022-10-01T06:30:43.937Z,5.50
2022-10-01T06:33:15.751Z,5.20
2022-10-01T06:35:50.181Z,5.20
2022-10-01T06:38:21.203Z,5.40
2022-10-01T06:40:59.560Z,5.40
2022-10-01T06:43:31.191Z,5.60
2022-10-01T06:46:05.096Z,5.30
2022-10-01T06:48:35.608Z,5.80
2022-10-01T06:51:04.686Z,6.10
2022-10-01T06:53:33.140Z,5.80
2022-10-01T06:56:07.607Z,6.60
2022-10-01T06:58:35.519Z,6.00
2022-10-01T07:01:04.072Z,6.10
2022-10-01T07:03:32.501Z,6.20
2022-10-01T07:06:08.054Z,5.60
2022-10-01T07:08:36.190Z,5.90
2022-10-01T07:11:05.205Z,5.70
2022-10-01T07:13:33.180Z,5.70
2022-10-01T07:16:04.932Z,5.50
2022-10-01T07:18:33.111Z,5.50
2022-10-01T07:21:01.802Z,5.60
2022-10-01T07:23:30.058Z,5.50
2022-10-01T07:25:59.101Z,5.60
2022-10-01T07:28:28.353Z,5.30
2022-10-01T07:31:00.743Z,5.70
2022-10-01T07:33:29.529Z,6.10
2022-10-01T07:36:02.284Z,5.70
2022-10-01T07:38:31.213Z,5.80
2022-10-01T07:40:59.901Z,5.60
2022-10-01T07:43:28.306Z,5.50
2022-10-01T07:45:58.462Z,5.10
2022-10-01T07:48:28.143Z,5.40
2022-10-01T07:50:57.959Z,5.60
2022-10-01T07:53:27.521Z,5.70
2022-10-01T07:55:55.592Z,5.80
2022-10-01T07:58:24.461Z,5.20
2022-10-01T08:00:56.293Z,5.60
2022-10-01T08:03:25.405Z,5.30
2022-10-01T08:05:54.429Z,5.80
2022-10-01T08:08:23.086Z,5.40
2022-10-01T08:10:51.179Z,5.40
2022-10-01T08:13:24.934Z,5.60
2022-10-01T08:15:55.006Z,5.30
2022-10-01T08:18:24.398Z,5.60
2022-10-01T08:20:52.673Z,5.60
2022-10-01T08:23:22.102Z,5.30
2022-10-01T08:25:50.266Z,5.40
2022-10-01T08:28:18.704Z,5.20
2022-10-01T08:30:46.851Z,5.20
2022-10-01T08:33:15.099Z,5.30
2022-10-01T08:35:43.882Z,5.40
2022-10-01T08:38:14.636Z,5.40
2022-10-01T08:40:50.829Z,5.20
2022-10-01T08:43:40.154Z,5.30
2022-10-01T08:46:16.712Z,5.30
2022-10-01T08:49:14.497Z,5.00
2022-10-01T08:52:10.541Z,5.30
2022-10-01T08:54:47.604Z,5.10
2022-10-01T08:57:22.960Z,5.40
2022-10-01T09:00:01.107Z,5.10
2022-10-01T09:02:38.334Z,5.50
2022-10-01T09:05:20.940Z,4.80
2022-10-01T09:08:04.386Z,4.80
2022-10-01T09:10:47.565Z,4.90
2022-10-01T09:13:50.214Z,4.70
2022-10-01T09:16:48.634Z,5.10
2022-10-01T09:19:32.123Z,4.90
2022-10-01T09:22:19.192Z,4.90
2022-10-01T09:25:03.548Z,4.70
2022-10-01T09:27:33.497Z,4.90
2022-10-01T09:30:04.407Z,4.90
2022-10-01T09:32:43.568Z,4.80
2022-10-01T09:35:45.533Z,5.30
2022-10-01T09:38:38.698Z,4.90
2022-10-01T09:41:10.771Z,4.80
2022-10-01T09:43:41.749Z,5.10
2022-10-01T09:46:17.278Z,4.70
2022-10-01T09:49:13.582Z,4.50
2022-10-01T09:51:54.965Z,4.60
2022-10-01T09:54:31.262Z,4.70
2022-10-01T09:57:27.186Z,4.90
2022-10-01T10:00:17.511Z,4.80
2022-10-01T10:02:49.967Z,4.50
2022-10-01T10:05:21.575Z,4.60
2022-10-01T10:07:57.738Z,4.80
2022-10-01T10:10:39.704Z,4.70
2022-10-01T10:13:35.490Z,4.50
2022-10-01T10:16:25.094Z,4.30
2022-10-01T10:19:00.632Z,4.20
2022-10-01T10:21:38.091Z,4.60
2022-10-01T10:24:24.577Z,3.90
2022-10-01T10:26:59.493Z,4.00
2022-10-01T10:29:32.014Z,3.80
2022-10-01T10:32:11.798Z,4.00
2022-10-01T10:34:47.035Z,3.70
2022-10-01T10:37:21.327Z,3.90
2022-10-01T10:39:52.702Z,3.70
2022-10-01T10:42:25.379Z,4.20
2022-10-01T10:44:58.856Z,4.10
2022-10-01T10:47:31.599Z,3.60
2022-10-01T10:50:06.370Z,3.60
2022-10-01T10:55:31.368Z,3.50
2022-10-01T10:58:15.495Z,3.40
2022-10-01T11:00:50.588Z,3.60
2022-10-01T11:03:24.671Z,3.80
2022-10-01T11:05:56.406Z,3.60
2022-10-01T11:08:29.091Z,3.50
2022-10-01T11:11:15.791Z,3.20
2022-10-01T11:14:36.091Z,3.50
2022-10-01T11:17:36.825Z,3.20
2022-10-01T11:20:33.703Z,3.00
2022-10-01T11:23:27.859Z,3.30
2022-10-01T11:26:37.445Z,3.00
2022-10-01T11:29:19.502Z,3.30
2022-10-01T11:32:09.160Z,3.30
2022-10-01T11:34:49.622Z,2.60
2022-10-01T11:37:29.183Z,2.70
2022-10-01T11:40:03.349Z,3.10
2022-10-01T11:42:36.366Z,2.70
2022-10-01T11:45:23.382Z,3.30
2022-10-01T11:48:02.445Z,3.40
2022-10-01T11:50:46.068Z,3.30
2022-10-01T11:53:33.573Z,3.50
2022-10-01T11:56:29.943Z,4.10
2022-10-01T11:59:24.118Z,3.50
2022-10-01T12:02:19.239Z,3.80
2022-10-01T12:05:06.442Z,3.70
2022-10-01T12:07:50.695Z,3.80
2022-10-01T12:10:40.783Z,4.30
2022-10-01T12:13:22.941Z,3.50
2022-10-01T12:16:15.031Z,3.80
2022-10-01T12:19:34.248Z,3.70
2022-10-01T12:22:25.792Z,4.00
2022-10-01T12:24:54.411Z,4.10
2022-10-01T12:27:33.602Z,4.00
2022-10-01T12:30:19.513Z,4.00
2022-10-01T12:33:21.686Z,4.00
2022-10-01T12:36:18.948Z,3.60
2022-10-01T12:39:09.263Z,3.70
2022-10-01T12:42:04.906Z,3.60
2022-10-01T12:45:01.609Z,3.70
2022-10-01T12:47:47.693Z,3.60
2022-10-01T12:50:35.372Z,4.00
2022-10-01T12:53:22.770Z,3.50
2022-10-01T12:56:17.597Z,3.50
2022-10-01T12:58:52.514Z,3.60
2022-10-01T13:01:58.469Z,3.60
2022-10-01T13:07:58.789Z,3.60
2022-10-01T13:11:20.671Z,3.90
2022-10-01T13:13:54.971Z,3.60
2022-10-01T13:16:54.467Z,3.90
2022-10-01T13:19:34.600Z,3.40
2022-10-01T13:22:17.376Z,3.30
2022-10-01T13:25:33.237Z,3.50
2022-10-01T13:28:26.930Z,3.30
2022-10-01T13:31:10.343Z,3.40
2022-10-01T13:33:38.707Z,3.30
2022-10-01T13:36:10.932Z,3.20
2022-10-01T13:38:46.515Z,2.90
2022-10-01T13:41:28.929Z,3.20
2022-10-01T13:44:28.430Z,3.10
2022-10-01T13:47:07.312Z,3.20
2022-10-01T13:49:38.205Z,3.20
2022-10-01T13:52:06.778Z,3.20
2022-10-01T13:54:50.349Z,3.20
2022-10-01T13:57:39.342Z,3.20
2022-10-01T14:00:17.689Z,3.20
2022-10-01T14:03:06.096Z,3.10
2022-10-01T14:05:44.562Z,3.10
2022-10-01T14:08:28.291Z,2.90
2022-10-01T14:11:31.292Z,3.10
2022-10-01T14:14:30.891Z,3.00
2022-10-01T14:17:00.485Z,2.90
2022-10-01T14:19:28.775Z,3.10
2022-10-01T14:22:16.426Z,2.90
2022-10-01T14:25:03.627Z,3.00
2022-10-01T14:27:50.499Z,2.90
2022-10-01T14:30:34.090Z,3.00
2022-10-01T14:33:33.187Z,3.10
2022-10-01T14:36:18.847Z,3.00
2022-10-01T14:38:47.445Z,3.00
2022-10-01T14:41:26.106Z,3.00
2022-10-01T14:43:56.487Z,2.90
2022-10-01T14:46:25.620Z,2.70
2022-10-01T14:49:00.111Z,2.90
2022-10-01T14:51:31.428Z,3.00
2022-10-01T14:54:01.977Z,2.90
2022-10-01T14:56:30.687Z,3.00
2022-10-01T14:59:04.337Z,3.00
2022-10-01T15:01:32.659Z,3.10
2022-10-01T15:04:02.125Z,2.80
2022-10-01T15:06:43.392Z,3.10
2022-10-01T15:09:18.885Z,2.80
2022-10-01T15:11:51.449Z,2.90
2022-10-01T15:14:25.136Z,2.80
2022-10-01T15:16:53.481Z,2.80
2022-10-01T15:19:24.109Z,2.80
2022-10-01T15:21:58.732Z,3.10
2022-10-01T15:24:39.777Z,2.80
2022-10-01T15:27:18.199Z,2.50
2022-10-01T15:29:56.028Z,2.80
2022-10-01T15:32:28.091Z,2.80
2022-10-01T15:35:01.716Z,2.80
2022-10-01T15:37:38.479Z,2.70
2022-10-01T15:40:40.478Z,2.80
2022-10-01T15:43:08.681Z,2.90
2022-10-01T15:45:37.054Z,3.10
2022-10-01T15:48:05.238Z,3.10
2022-10-01T15:50:39.365Z,3.10
2022-10-01T15:53:17.000Z,2.90
2022-10-01T15:55:56.434Z,3.20
2022-10-01T15:58:35.312Z,2.90
2022-10-01T16:01:13.240Z,3.30
2022-10-01T16:04:14.441Z,3.40
2022-10-01T16:06:48.263Z,3.40
2022-10-01T16:09:31.190Z,3.00
2022-10-01T16:12:21.374Z,3.00
2022-10-01T16:15:06.413Z,3.20
2022-10-01T16:17:40.181Z,3.30
2022-10-01T16:20:14.706Z,3.30
2022-10-01T16:22:44.269Z,4.00
2022-10-01T16:25:19.729Z,16.30
2022-10-01T16:28:01.608Z,25.10
2022-10-01T16:30:34.005Z,29.40
2022-10-01T16:33:06.362Z,30.00
2022-10-01T16:35:36.273Z,29.00
2022-10-01T16:38:09.365Z,31.30
2022-10-01T16:40:44.854Z,29.50
2022-10-01T16:43:24.448Z,32.30
2022-10-01T16:45:53.588Z,29.50
2022-10-01T16:48:22.604Z,30.10
2022-10-01T16:50:54.093Z,30.00
2022-10-01T16:53:24.943Z,29.20
2022-10-01T16:55:53.316Z,28.30
2022-10-01T16:58:22.115Z,28.60
2022-10-01T17:00:51.521Z,28.90
2022-10-01T17:03:22.668Z,28.70
2022-10-01T17:05:50.928Z,27.70
2022-10-01T17:08:20.468Z,28.30
2022-10-01T17:10:57.465Z,26.10
2022-10-01T17:13:29.997Z,27.00
2022-10-01T17:15:59.955Z,26.10
2022-10-01T17:18:28.400Z,25.70
2022-10-01T17:20:56.711Z,27.00
2022-10-01T17:23:25.002Z,25.90
2022-10-01T17:25:53.527Z,24.50
2022-10-01T17:28:24.173Z,25.40
2022-10-01T17:30:52.685Z,24.80
2022-10-01T17:33:21.333Z,25.60
2022-10-01T17:35:55.891Z,25.70
2022-10-01T17:38:24.741Z,23.70
2022-10-01T17:40:56.717Z,22.70
2022-10-01T17:43:25.505Z,23.40
2022-10-01T17:46:02.488Z,23.80
2022-10-01T17:48:31.685Z,22.90
2022-10-01T17:51:07.158Z,23.30
2022-10-01T17:53:42.321Z,23.20
2022-10-01T17:56:17.951Z,22.70
2022-10-01T17:58:47.102Z,23.00
2022-10-01T18:01:21.231Z,22.10
2022-10-01T18:03:56.305Z,22.60
2022-10-01T18:06:25.370Z,20.90
2022-10-01T18:08:55.938Z,21.00
2022-10-01T18:11:29.192Z,19.90
2022-10-01T18:13:58.169Z,21.10
2022-10-01T18:16:28.176Z,20.80
2022-10-01T18:21:48.213Z,20.20
2022-10-01T18:24:17.996Z,20.60
2022-10-01T18:26:47.099Z,19.00
2022-10-01T18:29:25.846Z,18.60
2022-10-01T18:32:14.076Z,19.80
2022-10-01T18:34:59.683Z,19.90
2022-10-01T18:37:46.231Z,19.00
2022-10-01T18:40:21.910Z,19.00
2022-10-01T18:43:03.608Z,18.40
2022-10-01T18:45:50.019Z,18.70
2022-10-01T18:48:42.250Z,18.20
2022-10-01T18:51:16.662Z,19.10
2022-10-01T18:56:36.453Z,17.50
2022-10-01T18:59:54.703Z,17.20
2022-10-01T19:03:06.211Z,17.50
2022-10-01T19:06:00.675Z,16.60
2022-10-01T19:08:41.561Z,16.90
2022-10-01T19:12:00.820Z,17.00
2022-10-01T19:14:46.723Z,16.40
2022-10-01T19:18:26.976Z,16.40
2022-10-01T19:21:38.383Z,15.50
2022-10-01T19:24:36.662Z,16.70
2022-10-01T19:27:25.314Z,15.80
2022-10-01T19:30:20.821Z,15.50
2022-10-01T19:35:47.494Z,15.90
2022-10-01T19:38:29.911Z,16.30
2022-10-01T19:41:23.854Z,16.40
2022-10-01T19:44:02.708Z,15.60
2022-10-01T19:46:41.274Z,15.40
2022-10-01T19:49:10.189Z,15.90
2022-10-01T19:52:00.210Z,15.60
2022-10-01T19:54:35.048Z,15.40
2022-10-01T19:57:41.080Z,15.70
2022-10-01T20:00:22.407Z,15.00
2022-10-01T20:03:36.094Z,14.20
2022-10-01T20:06:18.837Z,15.70
2022-10-01T20:09:08.183Z,14.80
2022-10-01T20:12:44.150Z,15.10
2022-10-01T20:15:34.557Z,14.40
2022-10-01T20:18:31.584Z,14.20
2022-10-01T20:21:16.463Z,15.40
2022-10-01T20:24:18.727Z,13.10
2022-10-01T20:27:01.238Z,13.70
2022-10-01T20:30:12.167Z,14.00
2022-10-01T20:33:13.353Z,13.00
2022-10-01T20:36:09.713Z,12.60
2022-10-01T20:38:52.651Z,13.20
2022-10-01T20:41:25.281Z,14.20
2022-10-01T20:43:59.883Z,14.80
2022-10-01T20:49:38.685Z,15.90
2022-10-01T20:52:20.492Z,15.60
2022-10-01T20:54:55.196Z,15.70
2022-10-01T20:58:19.433Z,16.10
2022-10-01T21:00:51.558Z,14.90
2022-10-01T21:03:44.592Z,15.70
2022-10-01T21:06:21.912Z,15.40
2022-10-01T21:09:10.441Z,13.80
2022-10-01T21:11:56.442Z,13.80
2022-10-01T21:14:44.576Z,13.30
2022-10-01T21:17:21.467Z,13.00
2022-10-01T21:19:55.833Z,12.20
2022-10-01T21:22:43.014Z,12.00
2022-10-01T21:25:30.118Z,11.10
2022-10-01T21:28:33.403Z,11.20
2022-10-01T21:31:32.849Z,11.30
2022-10-01T21:34:29.255Z,10.60
2022-10-01T21:37:22.960Z,10.30
2022-10-01T21:40:18.030Z,10.30
2022-10-01T21:43:37.017Z,10.30
2022-10-01T21:46:42.854Z,10.20
2022-10-01T21:52:41.358Z,9.00
2022-10-01T21:55:20.975Z,9.10
2022-10-01T21:58:23.582Z,9.00
2022-10-01T22:01:27.581Z,9.10
2022-10-01T22:04:40.113Z,8.50
2022-10-01T22:07:38.878Z,8.60
2022-10-01T22:10:26.779Z,8.60
2022-10-01T22:13:03.274Z,8.40
2022-10-01T22:15:40.644Z,8.20
2022-10-01T22:18:19.730Z,8.00
2022-10-01T22:20:48.890Z,7.90
2022-10-01T22:23:19.838Z,7.60
2022-10-01T22:26:06.374Z,7.80
2022-10-01T22:28:42.180Z,8.30
2022-10-01T22:31:20.574Z,8.40
2022-10-01T22:33:57.620Z,6.90
2022-10-01T22:36:45.798Z,7.50
2022-10-01T22:39:30.924Z,7.50
2022-10-01T22:42:14.416Z,7.20
2022-10-01T22:44:42.340Z,6.90
2022-10-01T22:47:55.263Z,7.50
2022-10-01T22:50:43.200Z,6.70
2022-10-01T22:53:39.478Z,7.00
2022-10-01T22:56:12.335Z,6.70
2022-10-01T22:59:20.647Z,6.60
2022-10-01T23:02:23.070Z,6.40
2022-10-01T23:05:24.697Z,6.10
2022-10-01T23:08:24.406Z,6.80
2022-10-01T23:11:14.111Z,6.80
2022-10-01T23:14:15.918Z,6.90
2022-10-01T23:17:22.805Z,8.10
2022-10-01T23:20:22.088Z,8.10
2022-10-01T23:23:02.262Z,8.70
2022-10-01T23:26:04.025Z,8.30
2022-10-01T23:29:30.399Z,8.60
2022-10-01T23:35:31.733Z,8.00
2022-10-01T23:38:44.962Z,8.40
2022-10-01T23:41:31.179Z,8.60
2022-10-01T23:44:14.184Z,8.50
2022-10-01T23:46:48.568Z,8.00
2022-10-01T23:49:22.194Z,8.70
2022-10-01T23:52:05.741Z,8.20
2022-10-01T23:54:44.671Z,8.50
2022-10-01T23:57:39.373Z,8.10
